Time;durP1;ratioP1;P1;durP2;ratioP2;P2;SDS_P1;SDS_P2;PMS_P1;PMS_P2;Temp;Humidity;BMP_temperature;BMP_pressure;BME280_temperature;BME280_humidity;BME280_pressure;Samples;Min_cycle;Max_cycle;Signal;HPM_P1;HPM_P2
2023/10/19 00:00:50;;;;;;;1999.90;999.90;;;8.20;99.90;;;;;;5038828;28;20066;-74
2023/10/19 00:03:17;;;;;;;1999.90;999.90;;;8.20;99.90;;;;;;5044554;28;20131;-73
2023/10/19 00:05:46;;;;;;;1999.90;999.90;;;8.20;99.90;;;;;;5043343;28;20158;-73
2023/10/19 00:08:21;;;;;;;1999.90;999.90;;;8.10;99.90;;;;;;5041177;28;20072;-73
2023/10/19 00:11:10;;;;;;;1999.90;999.90;;;8.10;99.90;;;;;;5054257;28;20633;-72
2023/10/19 00:13:37;;;;;;;1999.90;999.90;;;8.20;99.90;;;;;;5037383;28;20608;-73
2023/10/19 00:16:11;;;;;;;1999.90;999.90;;;8.10;99.90;;;;;;5046358;28;20044;-73
2023/10/19 00:18:41;;;;;;;1999.90;999.90;;;8.20;99.90;;;;;;5048095;28;20032;-75
2023/10/19 00:21:20;;;;;;;1999.90;999.90;;;8.20;99.90;;;;;;5048014;28;20040;-74
2023/10/19 00:23:47;;;;;;;1999.90;999.90;;;8.20;99.90;;;;;;5043662;28;20028;-74
2023/10/19 00:26:20;;;;;;;1999.90;999.90;;;8.20;99.90;;;;;;5041488;28;20083;-74
2023/10/19 00:28:52;;;;;;;1999.90;999.90;;;8.30;99.90;;;;;;5047648;28;20043;-74
2023/10/19 00:31:20;;;;;;;1999.90;999.90;;;8.30;99.90;;;;;;5041305;28;20108;-74
2023/10/19 00:33:46;;;;;;;1999.90;999.90;;;8.30;99.90;;;;;;5042673;28;20045;-74
2023/10/19 00:36:15;;;;;;;1999.90;999.90;;;8.30;99.90;;;;;;5049546;28;20061;-73
2023/10/19 00:38:54;;;;;;;1999.90;999.90;;;8.40;99.90;;;;;;5042990;28;20115;-72
2023/10/19 00:41:29;;;;;;;1999.90;999.90;;;8.30;99.90;;;;;;5043768;28;20111;-73
2023/10/19 00:44:02;;;;;;;1999.90;999.90;;;8.40;99.90;;;;;;5043491;28;20036;-73
2023/10/19 00:46:44;;;;;;;1999.90;999.90;;;8.40;99.90;;;;;;5041384;28;20025;-73
2023/10/19 00:49:14;;;;;;;1999.90;999.90;;;8.30;99.90;;;;;;5045419;28;20025;-74
2023/10/19 00:54:26;;;;;;;1999.90;999.90;;;8.40;99.90;;;;;;5037092;28;20047;-72
2023/10/19 00:56:58;;;;;;;1999.90;999.90;;;8.30;99.90;;;;;;5050064;28;20037;-73
2023/10/19 00:59:30;;;;;;;1999.90;999.90;;;8.40;99.90;;;;;;5044795;28;20037;-73
2023/10/19 01:02:16;;;;;;;1999.90;999.90;;;8.30;99.90;;;;;;5048433;28;20048;-73
2023/10/19 01:04:50;;;;;;;1999.90;999.90;;;8.40;99.90;;;;;;5051036;28;20053;-73
2023/10/19 01:07:27;;;;;;;1999.90;999.90;;;8.40;99.90;;;;;;5041164;28;20378;-73
2023/10/19 01:09:57;;;;;;;1999.90;999.90;;;8.30;99.90;;;;;;5045330;28;20055;-74
2023/10/19 01:15:19;;;;;;;1999.90;999.90;;;8.40;99.90;;;;;;5056528;28;20116;-73
2023/10/19 01:17:56;;;;;;;1999.90;999.90;;;8.50;99.90;;;;;;5054228;28;20029;-72
2023/10/19 01:31:22;;;;;;;1999.90;999.90;;;8.70;99.90;;;;;;5054486;28;20102;-75
2023/10/19 01:33:49;;;;;;;1999.90;999.90;;;8.70;99.90;;;;;;5049246;28;20103;-73
2023/10/19 01:36:17;;;;;;;1999.90;999.90;;;8.70;99.90;;;;;;5052282;28;20033;-74
2023/10/19 01:38:43;;;;;;;1999.90;999.90;;;8.60;99.90;;;;;;5061022;28;20040;-73
2023/10/19 01:41:18;;;;;;;1999.90;999.90;;;8.70;99.90;;;;;;5053328;28;20124;-74
2023/10/19 01:43:46;;;;;;;1999.90;999.90;;;8.70;99.90;;;;;;5050478;28;20029;-73
2023/10/19 01:46:13;;;;;;;1999.90;999.90;;;8.70;99.90;;;;;;5047869;28;20043;-73
2023/10/19 01:48:44;;;;;;;1999.90;999.90;;;8.70;99.90;;;;;;5051044;28;20060;-72
2023/10/19 01:51:11;;;;;;;1999.90;999.90;;;8.80;99.90;;;;;;5047389;28;20499;-73
2023/10/19 01:53:43;;;;;;;1999.90;999.90;;;8.70;99.90;;;;;;5045923;28;20111;-73
2023/10/19 01:56:09;;;;;;;1999.90;999.90;;;8.70;99.90;;;;;;5042450;28;20061;-73
2023/10/19 01:58:41;;;;;;;1999.90;999.90;;;8.80;99.90;;;;;;5050746;28;20438;-73
2023/10/19 02:03:41;;;;;;;1999.90;999.90;;;8.80;99.90;;;;;;5052379;28;20514;-72
2023/10/19 02:06:18;;;;;;;1999.90;999.90;;;8.80;99.90;;;;;;5047744;28;20035;-74
2023/10/19 02:09:00;;;;;;;1999.90;999.90;;;8.80;99.90;;;;;;5047988;28;20025;-73
2023/10/19 02:11:27;;;;;;;1999.90;999.90;;;8.80;99.90;;;;;;5053996;28;20043;-74
2023/10/19 02:13:59;;;;;;;1999.90;999.90;;;8.70;99.90;;;;;;5051513;28;20021;-74
2023/10/19 02:16:29;;;;;;;1999.90;999.90;;;8.70;99.90;;;;;;5052758;28;20041;-73
2023/10/19 02:18:55;;;;;;;1999.90;999.90;;;8.80;99.90;;;;;;5051608;28;20500;-72
2023/10/19 02:21:27;;;;;;;1999.90;999.90;;;8.70;99.90;;;;;;5042887;28;20075;-73
2023/10/19 02:23:53;;;;;;;1999.90;999.90;;;8.70;99.90;;;;;;5042437;28;20696;-74
2023/10/19 02:26:28;;;;;;;1999.90;999.90;;;8.70;99.90;;;;;;5055578;28;20112;-75
2023/10/19 02:28:55;;;;;;;1999.90;999.90;;;8.80;99.90;;;;;;5044606;28;20032;-74
2023/10/19 02:31:23;;;;;;;1999.90;999.90;;;8.80;99.90;;;;;;5045294;28;20033;-74
2023/10/19 02:33:58;;;;;;;1999.90;999.90;;;8.70;99.90;;;;;;5042856;28;20114;-73
2023/10/19 02:36:28;;;;;;;1999.90;999.90;;;8.80;99.90;;;;;;5051488;28;20536;-73
2023/10/19 02:38:58;;;;;;;1999.90;999.90;;;8.70;99.90;;;;;;5057688;28;20033;-73
2023/10/19 02:41:26;;;;;;;1999.90;999.90;;;8.70;99.90;;;;;;5055941;28;20439;-74
2023/10/19 02:44:08;;;;;;;1999.90;999.90;;;8.60;99.90;;;;;;5057743;28;20147;-72
2023/10/19 02:46:34;;;;;;;1999.90;999.90;;;8.60;99.90;;;;;;5047453;28;20094;-73
2023/10/19 02:49:04;;;;;;;1999.90;999.90;;;8.60;99.90;;;;;;5048223;28;20043;-73
2023/10/19 02:51:30;;;;;;;1999.90;999.90;;;8.50;99.90;;;;;;5047177;28;20033;-73
2023/10/19 02:54:00;;;;;;;1999.90;999.90;;;8.50;99.90;;;;;;5051490;28;20511;-73
2023/10/19 02:56:29;;;;;;;1999.90;999.90;;;8.50;99.90;;;;;;5050674;28;20426;-73
2023/10/19 02:59:01;;;;;;;1999.90;999.90;;;8.50;99.90;;;;;;5051075;28;20499;-73
2023/10/19 03:01:30;;;;;;;1999.90;999.90;;;8.40;99.90;;;;;;5053873;28;20028;-73
2023/10/19 03:03:59;;;;;;;1999.90;999.90;;;8.40;99.90;;;;;;5051299;28;20029;-74
2023/10/19 03:06:32;;;;;;;1999.90;999.90;;;8.40;99.90;;;;;;5045004;28;20044;-71
2023/10/19 03:09:02;;;;;;;1999.90;999.90;;;8.40;99.90;;;;;;5052854;28;20431;-74
2023/10/19 03:11:28;;;;;;;1999.90;999.90;;;8.30;99.90;;;;;;5053678;28;20017;-73
2023/10/19 03:13:54;;;;;;;1999.90;999.90;;;8.30;99.90;;;;;;5052772;28;20451;-72
2023/10/19 03:16:21;;;;;;;1999.90;999.90;;;8.40;99.90;;;;;;5045741;28;20065;-72
2023/10/19 03:18:47;;;;;;;1999.90;999.90;;;8.50;99.90;;;;;;5042833;28;20120;-74
2023/10/19 03:21:13;;;;;;;1999.90;999.90;;;8.50;99.90;;;;;;5054729;28;20047;-74
2023/10/19 03:23:40;;;;;;;1999.90;999.90;;;8.60;99.90;;;;;;5048716;28;20083;-72
2023/10/19 03:29:14;;;;;;;1999.90;999.90;;;8.70;99.90;;;;;;5054667;28;20585;-73
2023/10/19 03:31:47;;;;;;;1999.90;999.90;;;8.60;99.90;;;;;;5052066;28;20033;-73
2023/10/19 03:34:16;;;;;;;1999.90;999.90;;;8.70;99.90;;;;;;5040995;28;20037;-73
2023/10/19 03:36:42;;;;;;;1999.90;999.90;;;8.70;99.90;;;;;;5049073;28;20040;-74
2023/10/19 03:39:17;;;;;;;1999.90;999.90;;;8.70;99.90;;;;;;5047410;28;20037;-73
2023/10/19 03:41:44;;;;;;;1999.90;999.90;;;8.70;99.90;;;;;;5049093;28;20039;-72
2023/10/19 03:44:24;;;;;;;1999.90;999.90;;;8.80;99.90;;;;;;5043617;28;20032;-72
2023/10/19 03:46:57;;;;;;;1999.90;999.90;;;8.80;99.90;;;;;;5042607;28;20037;-76
2023/10/19 03:49:26;;;;;;;1999.90;999.90;;;8.90;99.90;;;;;;5044759;28;20037;-72
2023/10/19 03:54:47;;;;;;;1999.90;999.90;;;8.90;99.90;;;;;;5037451;28;20034;-74
2023/10/19 03:57:19;;;;;;;1999.90;999.90;;;8.90;99.90;;;;;;5049085;28;20124;-74
2023/10/19 03:59:46;;;;;;;1999.90;999.90;;;9.00;99.90;;;;;;5046156;28;20037;-73
2023/10/19 04:02:16;;;;;;;1999.90;999.90;;;9.00;99.90;;;;;;5053476;28;20037;-73
2023/10/19 04:04:49;;;;;;;1999.90;999.90;;;9.00;99.90;;;;;;5050680;28;20044;-72
2023/10/19 04:07:21;;;;;;;1999.90;999.90;;;9.10;99.90;;;;;;5049723;28;20044;-73
2023/10/19 04:09:57;;;;;;;1999.90;999.90;;;9.00;99.90;;;;;;5049888;28;20040;-73
2023/10/19 04:12:30;;;;;;;1999.90;999.90;;;9.00;99.90;;;;;;5050980;28;20060;-73
2023/10/19 04:15:09;;;;;;;1999.90;999.90;;;9.00;99.90;;;;;;5046836;28;20032;-72
2023/10/19 04:17:36;;;;;;;1999.90;999.90;;;9.10;99.90;;;;;;5048066;28;20037;-74
2023/10/19 04:20:21;;;;;;;1999.90;999.90;;;9.10;99.90;;;;;;5045136;28;20044;-74
2023/10/19 04:22:50;;;;;;;1999.90;999.90;;;9.20;99.90;;;;;;5044691;28;20503;-74
2023/10/19 04:25:20;;;;;;;1999.90;999.90;;;9.20;99.90;;;;;;5044979;28;20040;-72
2023/10/19 04:27:48;;;;;;;1999.90;999.90;;;9.20;99.90;;;;;;5047804;28;20033;-73
2023/10/19 04:30:24;;;;;;;1999.90;999.90;;;9.20;99.90;;;;;;5043667;28;20036;-73
2023/10/19 04:32:51;;;;;;;1999.90;999.90;;;9.20;99.90;;;;;;5052728;28;20049;-72
2023/10/19 04:35:23;;;;;;;1999.90;999.90;;;9.20;99.90;;;;;;5045321;28;20120;-73
2023/10/19 04:37:57;;;;;;;1999.90;999.90;;;9.30;99.90;;;;;;5053881;28;20062;-73
2023/10/19 04:40:23;;;;;;;1999.90;999.90;;;9.30;99.90;;;;;;5049166;28;20060;-73
2023/10/19 04:42:51;;;;;;;1999.90;999.90;;;9.30;99.90;;;;;;5047871;28;20792;-73
2023/10/19 04:45:17;;;;;;;1999.90;999.90;;;9.30;99.90;;;;;;5042298;28;20037;-74
2023/10/19 04:47:42;;;;;;;1999.90;999.90;;;9.40;99.90;;;;;;5046445;28;20484;-74
2023/10/19 04:50:11;;;;;;;1999.90;999.90;;;9.40;99.90;;;;;;5052131;28;20478;-72
2023/10/19 04:52:37;;;;;;;1999.90;999.90;;;9.40;99.90;;;;;;5047807;28;20041;-73
2023/10/19 04:55:03;;;;;;;1999.90;999.90;;;9.40;99.90;;;;;;5055391;28;20048;-72
2023/10/19 04:57:30;;;;;;;1999.90;999.90;;;9.40;99.90;;;;;;5046776;28;20030;-72
2023/10/19 04:59:56;;;;;;;1999.90;999.90;;;9.40;99.90;;;;;;5048605;28;20041;-75
2023/10/19 05:02:22;;;;;;;1999.90;999.90;;;9.50;99.90;;;;;;5045631;28;20029;-74
2023/10/19 05:04:48;;;;;;;1999.90;999.90;;;9.50;99.90;;;;;;5044738;28;20017;-73
2023/10/19 05:07:17;;;;;;;1999.90;999.90;;;9.60;99.90;;;;;;5052870;28;20044;-73
2023/10/19 05:09:44;;;;;;;1999.90;999.90;;;9.60;99.90;;;;;;5043709;28;20582;-72
2023/10/19 05:12:11;;;;;;;1999.90;999.90;;;9.60;99.90;;;;;;5045063;28;20140;-75
2023/10/19 05:14:39;;;;;;;1999.90;999.90;;;9.70;99.90;;;;;;5044925;28;20037;-74
2023/10/19 05:17:05;;;;;;;1999.90;999.90;;;9.70;99.90;;;;;;5050945;28;20037;-74
2023/10/19 05:19:32;;;;;;;1999.90;999.90;;;9.70;99.90;;;;;;5052676;28;20037;-72
2023/10/19 05:21:59;;;;;;;1999.90;999.90;;;9.70;99.90;;;;;;5053473;28;20052;-73
2023/10/19 05:24:25;;;;;;;1999.90;999.90;;;9.80;99.90;;;;;;5051976;28;20028;-74
2023/10/19 05:26:53;;;;;;;1999.90;999.90;;;9.80;99.90;;;;;;5050294;28;20142;-72
2023/10/19 05:29:19;;;;;;;1999.90;999.90;;;9.80;99.90;;;;;;5046899;28;20017;-78
2023/10/19 05:31:45;;;;;;;1999.90;999.90;;;9.80;99.90;;;;;;5051690;28;20040;-76
2023/10/19 05:34:11;;;;;;;1999.90;999.90;;;9.80;99.90;;;;;;5050629;28;20390;-75
2023/10/19 05:36:36;;;;;;;1999.90;999.90;;;9.90;99.90;;;;;;5054460;28;20028;-77
2023/10/19 05:39:04;;;;;;;1999.90;999.90;;;9.90;99.90;;;;;;5051993;28;20025;-77
2023/10/19 05:41:31;;;;;;;1999.90;999.90;;;9.90;99.90;;;;;;5051265;28;20107;-75
2023/10/19 05:43:57;;;;;;;1999.90;999.90;;;9.80;99.90;;;;;;5050555;28;20133;-77
2023/10/19 05:46:24;;;;;;;1999.90;999.90;;;9.80;99.90;;;;;;5050624;28;20038;-78
2023/10/19 05:48:51;;;;;;;1999.90;999.90;;;9.90;99.90;;;;;;5051864;28;21321;-78
2023/10/19 05:51:17;;;;;;;1999.90;999.90;;;9.90;99.90;;;;;;5047878;28;20029;-74
2023/10/19 05:53:44;;;;;;;1999.90;999.90;;;10.00;99.90;;;;;;5045456;28;20044;-76
2023/10/19 05:56:13;;;;;;;1999.90;999.90;;;9.90;99.90;;;;;;5051164;28;20034;-75
2023/10/19 05:58:38;;;;;;;1999.90;999.90;;;10.00;99.90;;;;;;5041996;28;20029;-77
2023/10/19 06:01:04;;;;;;;1999.90;999.90;;;10.00;99.90;;;;;;5047290;28;20091;-75
2023/10/19 06:03:30;;;;;;;1999.90;999.90;;;10.00;99.90;;;;;;5045876;28;20036;-78
2023/10/19 06:05:56;;;;;;;1999.90;999.90;;;10.00;99.90;;;;;;5046350;28;20108;-76
2023/10/19 06:08:22;;;;;;;1999.90;999.90;;;10.00;99.90;;;;;;5046808;28;20410;-74
2023/10/19 06:10:54;;;;;;;1999.90;999.90;;;10.10;99.90;;;;;;5048267;28;20040;-74
2023/10/19 06:13:21;;;;;;;1999.90;999.90;;;10.10;99.90;;;;;;5054249;28;20025;-76
2023/10/19 06:15:48;;;;;;;1999.90;999.90;;;10.10;99.90;;;;;;5046793;28;20058;-74
2023/10/19 06:18:14;;;;;;;1999.90;999.90;;;10.10;99.90;;;;;;5051305;28;20032;-76
2023/10/19 06:20:44;;;;;;;1999.90;999.90;;;10.10;99.90;;;;;;5045912;28;20095;-78
2023/10/19 06:23:11;;;;;;;1999.90;999.90;;;10.20;99.90;;;;;;5048718;28;20450;-76
2023/10/19 06:25:37;;;;;;;1999.90;999.90;;;10.10;99.90;;;;;;5051946;28;20059;-76
2023/10/19 06:28:04;;;;;;;1999.90;999.90;;;10.10;99.90;;;;;;5054302;28;20695;-77
2023/10/19 06:30:30;;;;;;;1999.90;999.90;;;10.10;99.90;;;;;;5050671;28;20026;-74
2023/10/19 06:33:03;;;;;;;1999.90;999.90;;;10.20;99.90;;;;;;5050315;28;20072;-76
2023/10/19 06:35:32;;;;;;;1999.90;999.90;;;10.20;99.90;;;;;;5050973;28;20083;-76
2023/10/19 06:37:59;;;;;;;1999.90;999.90;;;10.20;99.90;;;;;;5054807;28;20041;-74
2023/10/19 06:40:26;;;;;;;1999.90;999.90;;;10.20;99.90;;;;;;5043465;28;20041;-75
2023/10/19 06:42:55;;;;;;;1999.90;999.90;;;10.30;99.90;;;;;;5044857;28;20037;-74
2023/10/19 06:45:21;;;;;;;1999.90;999.90;;;10.40;99.90;;;;;;5053187;28;20052;-75
2023/10/19 06:47:49;;;;;;;1999.90;999.90;;;10.40;99.90;;;;;;5051559;28;20029;-75
2023/10/19 06:50:20;;;;;;;1999.90;999.90;;;10.50;99.90;;;;;;5053330;28;20033;-76
2023/10/19 06:52:47;;;;;;;;;;;10.60;99.90;;;;;;5049482;28;20029;-75
2023/10/19 06:55:14;;;;;;;1999.90;999.90;;;10.60;99.90;;;;;;5049630;28;19917;-76
2023/10/19 06:57:43;;;;;;;1999.90;999.90;;;10.70;99.90;;;;;;5051081;28;20067;-78
2023/10/19 07:00:14;;;;;;;1999.90;999.90;;;10.80;99.90;;;;;;5049120;28;20049;-79
2023/10/19 07:02:41;;;;;;;1999.90;999.90;;;10.90;99.90;;;;;;5052765;28;20514;-74
2023/10/19 07:05:10;;;;;;;1999.90;999.90;;;10.90;99.90;;;;;;5053847;28;20394;-75
2023/10/19 07:07:37;;;;;;;1999.90;999.90;;;11.00;99.90;;;;;;5051496;28;20145;-74
2023/10/19 07:10:04;;;;;;;1999.90;999.90;;;11.00;99.90;;;;;;5051370;28;20064;-75
2023/10/19 07:12:29;;;;;;;1999.90;999.90;;;11.10;99.90;;;;;;5056833;28;20126;-75
2023/10/19 07:14:58;;;;;;;1999.90;999.90;;;11.10;99.90;;;;;;5045836;28;20039;-74
2023/10/19 07:17:27;;;;;;;1999.90;999.90;;;11.20;99.90;;;;;;5055984;28;20033;-78
2023/10/19 07:19:53;;;;;;;1999.90;999.90;;;11.20;99.90;;;;;;5050260;28;20052;-75
2023/10/19 07:22:22;;;;;;;1999.90;999.90;;;11.30;99.90;;;;;;5051337;28;20029;-75
2023/10/19 07:24:48;;;;;;;1999.90;999.90;;;11.30;99.90;;;;;;5052059;28;20036;-74
2023/10/19 07:27:18;;;;;;;1999.90;999.90;;;11.40;99.90;;;;;;5049415;28;20029;-77
2023/10/19 07:29:45;;;;;;;1999.90;999.90;;;11.40;99.90;;;;;;5055583;28;20033;-76
2023/10/19 07:32:16;;;;;;;1999.90;999.90;;;11.40;99.90;;;;;;5056156;28;20384;-76
2023/10/19 07:34:44;;;;;;;1999.90;999.90;;;11.50;99.90;;;;;;5048564;28;20048;-77
2023/10/19 07:37:14;;;;;;;1999.90;999.90;;;11.50;99.90;;;;;;5051024;28;20025;-75
2023/10/19 07:39:52;;;;;;;1999.90;999.90;;;11.40;99.90;;;;;;5050026;28;20191;-79
2023/10/19 07:42:17;;;;;;;1999.90;999.90;;;11.40;99.90;;;;;;5049854;28;20055;-74
2023/10/19 07:44:44;;;;;;;1999.90;999.90;;;11.40;99.90;;;;;;5051359;28;20029;-77
2023/10/19 07:47:11;;;;;;;1999.90;999.90;;;11.40;99.90;;;;;;5049733;28;20600;-77
2023/10/19 07:49:41;;;;;;;1999.90;999.90;;;11.40;99.90;;;;;;5058426;28;20032;-75
2023/10/19 07:52:07;;;;;;;1999.90;999.90;;;11.40;99.90;;;;;;5057452;28;20028;-76
2023/10/19 07:54:36;;;;;;;1999.90;999.90;;;11.40;99.90;;;;;;5055305;28;20148;-78
2023/10/19 07:57:08;;;;;;;1999.90;999.90;;;11.40;99.90;;;;;;5047248;28;20033;-76
2023/10/19 07:59:34;;;;;;;1999.90;999.90;;;11.40;99.90;;;;;;5054790;28;20091;-75
2023/10/19 08:02:04;;;;;;;1999.90;999.90;;;11.40;99.90;;;;;;5054623;28;20107;-76
2023/10/19 08:04:30;;;;;;;1999.90;999.90;;;11.40;99.90;;;;;;5056829;28;20690;-75
2023/10/19 08:06:58;;;;;;;1999.90;999.90;;;11.40;99.90;;;;;;5053041;28;20102;-75
2023/10/19 08:09:26;;;;;;;1999.90;999.90;;;11.50;99.90;;;;;;5048944;28;20033;-74
2023/10/19 08:11:55;;;;;;;1999.90;999.90;;;11.50;99.90;;;;;;5053573;28;20116;-77
2023/10/19 08:14:25;;;;;;;1999.90;999.90;;;11.50;99.90;;;;;;5045395;28;20483;-76
2023/10/19 08:16:51;;;;;;;1999.90;999.90;;;11.60;99.90;;;;;;5050514;28;20029;-79
2023/10/19 08:19:18;;;;;;;1999.90;999.90;;;11.60;99.90;;;;;;5053106;28;20032;-75
2023/10/19 08:21:44;;;;;;;1999.90;999.90;;;11.70;99.90;;;;;;5046367;28;20036;-77
2023/10/19 08:24:13;;;;;;;1999.90;999.90;;;11.80;99.90;;;;;;5056903;28;20040;-78
2023/10/19 08:26:41;;;;;;;1999.90;999.90;;;11.90;99.90;;;;;;5052146;28;20355;-76
2023/10/19 08:29:12;;;;;;;1999.90;999.90;;;11.90;99.90;;;;;;5055666;28;20029;-75
2023/10/19 08:31:39;;;;;;;1999.90;999.90;;;12.00;99.90;;;;;;5051190;28;20029;-78
2023/10/19 08:34:06;;;;;;;1999.90;999.90;;;12.10;99.90;;;;;;5049390;28;20044;-76
2023/10/19 08:36:31;;;;;;;1999.90;999.90;;;12.30;99.90;;;;;;5062171;28;20033;-76
2023/10/19 08:38:57;;;;;;;1999.90;999.90;;;12.40;99.90;;;;;;5053234;28;20025;-77
2023/10/19 08:41:23;;;;;;;1999.90;999.90;;;12.50;99.90;;;;;;5050553;28;20036;-77
2023/10/19 08:43:50;;;;;;;1999.90;999.90;;;12.40;99.90;;;;;;5052491;28;20082;-74
2023/10/19 08:46:16;;;;;;;1999.90;999.90;;;12.50;99.90;;;;;;5052100;28;20052;-75
2023/10/19 08:48:42;;;;;;;1999.90;999.90;;;12.30;99.90;;;;;;5050472;28;20043;-76
2023/10/19 08:51:11;;;;;;;1999.90;999.90;;;12.50;99.90;;;;;;5059356;28;20025;-74
2023/10/19 08:53:40;;;;;;;1999.90;999.90;;;12.60;99.90;;;;;;5047057;28;20432;-75
2023/10/19 08:56:07;;;;;;;1999.90;999.90;;;12.60;99.90;;;;;;5053011;28;20107;-75
2023/10/19 08:58:34;;;;;;;1999.90;999.90;;;12.60;99.90;;;;;;5052380;28;20041;-75
2023/10/19 09:01:06;;;;;;;1999.90;999.90;;;12.70;99.90;;;;;;5051970;28;20025;-75
2023/10/19 09:03:32;;;;;;;1999.90;999.90;;;12.70;99.90;;;;;;5051462;28;20036;-79
2023/10/19 09:06:05;;;;;;;1999.90;999.90;;;12.60;99.90;;;;;;5048063;28;20116;-76
2023/10/19 09:08:40;;;;;;;1999.90;999.90;;;12.50;99.90;;;;;;5044439;28;20033;-79
2023/10/19 09:11:10;;;;;;;1999.90;999.90;;;12.60;99.90;;;;;;5048901;28;20582;-77
2023/10/19 09:13:50;;;;;;;1999.90;999.90;;;12.50;99.90;;;;;;5044519;28;20103;-75
2023/10/19 09:16:22;;;;;;;1999.90;999.90;;;12.60;99.90;;;;;;5049349;28;20037;-75
2023/10/19 09:18:51;;;;;;;1999.90;999.90;;;12.60;99.90;;;;;;5051228;28;20064;-75
2023/10/19 09:21:24;;;;;;;1999.90;999.90;;;12.60;99.90;;;;;;5053214;28;20028;-78
2023/10/19 09:23:56;;;;;;;1999.90;999.90;;;12.50;99.90;;;;;;5055442;28;20677;-77
2023/10/19 09:26:24;;;;;;;1999.90;999.90;;;12.40;99.90;;;;;;5050049;28;20032;-75
2023/10/19 09:28:51;;;;;;;1999.90;999.90;;;12.50;99.90;;;;;;5051334;28;20034;-77
2023/10/19 09:31:18;;;;;;;1999.90;999.90;;;12.50;99.90;;;;;;5052312;28;20635;-76
2023/10/19 09:33:45;;;;;;;1999.90;999.90;;;12.60;99.90;;;;;;5051503;28;20063;-76
2023/10/19 09:36:15;;;;;;;1999.90;999.90;;;12.80;99.90;;;;;;5056470;28;20205;-76
2023/10/19 09:38:51;;;;;;;1999.90;999.90;;;12.90;99.90;;;;;;5054976;28;20040;-76
2023/10/19 09:41:28;;;;;;;1999.90;999.90;;;13.00;99.90;;;;;;5051161;28;20036;-75
2023/10/19 09:44:04;;;;;;;1999.90;999.90;;;13.00;99.90;;;;;;5051030;28;20120;-76
2023/10/19 09:46:32;;;;;;;1999.90;999.90;;;13.00;99.90;;;;;;5051925;28;20025;-79
2023/10/19 09:48:59;;;;;;;1999.90;999.90;;;13.10;99.90;;;;;;5056051;28;20102;-75
2023/10/19 09:51:25;;;;;;;1999.90;999.90;;;13.10;99.90;;;;;;5056926;28;20032;-76
2023/10/19 09:54:26;;;;;;;1999.90;999.90;;;13.00;99.90;;;;;;5054287;28;20029;-73
2023/10/19 09:57:01;;;;;;;1999.90;999.90;;;12.80;99.90;;;;;;5049158;28;20033;-78
2023/10/19 09:59:33;;;;;;;1999.90;999.90;;;12.80;99.90;;;;;;5055792;28;20505;-78
2023/10/19 10:02:12;;;;;;;1999.90;999.90;;;12.90;99.90;;;;;;5050206;28;20040;-77
2023/10/19 10:04:45;;;;;;;1999.90;999.90;;;12.90;99.90;;;;;;5050756;28;20115;-77
2023/10/19 10:07:10;;;;;;;1999.90;999.90;;;12.90;99.90;;;;;;5048088;28;20079;-76
2023/10/19 10:09:39;;;;;;;1999.90;999.90;;;13.00;99.90;;;;;;5049223;28;20037;-77
2023/10/19 10:12:21;;;;;;;1999.90;999.90;;;13.20;99.90;;;;;;5053403;28;20052;-75
2023/10/19 10:15:37;;;;;;;1999.90;999.90;;;13.30;99.90;;;;;;5045864;28;20521;-76
2023/10/19 10:18:13;;;;;;;1999.90;999.90;;;13.30;99.90;;;;;;5044325;28;20037;-77
2023/10/19 10:20:39;;;;;;;1999.90;999.90;;;13.50;99.90;;;;;;5050919;28;20036;-76
2023/10/19 10:23:21;;;;;;;1999.90;999.90;;;13.50;99.90;;;;;;5051176;28;20039;-76
2023/10/19 10:25:53;;;;;;;1999.90;999.90;;;13.80;99.90;;;;;;5050913;28;20033;-75
2023/10/19 10:28:19;;;;;;;1999.90;999.90;;;13.80;99.90;;;;;;5050533;28;20029;-76
2023/10/19 10:31:13;;;;;;;1999.90;999.90;;;14.10;99.90;;;;;;5052226;28;20040;-75
2023/10/19 10:33:40;;;;;;;1999.90;999.90;;;14.30;99.90;;;;;;5048308;28;20048;-77
2023/10/19 10:36:07;;;;;;;1999.90;999.90;;;14.50;99.90;;;;;;5048799;28;20051;-76
2023/10/19 10:38:35;;;;;;;1999.90;999.90;;;14.70;99.90;;;;;;5053038;28;20044;-76
2023/10/19 10:41:04;;;;;;;1999.90;999.90;;;14.60;99.90;;;;;;5049163;28;20037;-76
2023/10/19 10:43:30;;;;;;;1999.90;999.90;;;14.40;99.90;;;;;;5050175;28;20029;-75
2023/10/19 10:46:07;;;;;;;1999.90;999.90;;;14.40;99.90;;;;;;5048402;28;20103;-77
2023/10/19 10:48:33;;;;;;;1999.90;999.90;;;14.40;99.90;;;;;;5046357;28;20032;-78
2023/10/19 10:50:59;;;;;;;1999.90;999.90;;;14.60;99.90;;;;;;5056530;28;20082;-74
2023/10/19 10:53:26;;;;;;;1999.90;999.90;;;15.00;99.90;;;;;;5050094;28;20041;-76
2023/10/19 10:55:53;;;;;;;1999.90;999.90;;;15.40;99.90;;;;;;5048868;28;20112;-78
2023/10/19 10:58:20;;;;;;;1999.90;999.90;;;15.50;99.90;;;;;;5055901;28;20055;-76
2023/10/19 11:00:47;;;;;;;1999.90;999.90;;;15.20;99.90;;;;;;5047966;28;20509;-76
2023/10/19 11:03:13;;;;;;;1999.90;999.90;;;15.30;99.90;;;;;;5051863;28;20084;-76
2023/10/19 11:05:39;;;;;;;1999.90;999.90;;;15.10;99.90;;;;;;5050239;28;20044;-77
2023/10/19 11:08:13;;;;;;;1999.90;999.90;;;15.00;99.90;;;;;;5044578;28;20025;-76
2023/10/19 11:10:40;;;;;;;1999.90;999.90;;;15.10;99.90;;;;;;5055299;28;20029;-76
2023/10/19 11:13:07;;;;;;;1999.90;999.90;;;15.30;99.90;;;;;;5047614;28;20503;-76
2023/10/19 11:15:34;;;;;;;1999.90;999.90;;;15.40;99.90;;;;;;5051600;28;20037;-75
2023/10/19 11:18:01;;;;;;;1999.90;999.90;;;15.40;99.90;;;;;;5050850;28;20045;-75
2023/10/19 11:20:27;;;;;;;1999.90;999.90;;;15.40;99.90;;;;;;5045953;28;20048;-76
2023/10/19 11:22:55;;;;;;;1999.90;999.90;;;15.60;99.90;;;;;;5052831;28;20425;-77
2023/10/19 11:25:29;;;;;;;1999.90;999.90;;;15.30;99.90;;;;;;5055938;28;20703;-76
2023/10/19 11:27:56;;;;;;;1999.90;999.90;;;15.40;99.90;;;;;;5047705;28;20041;-76
2023/10/19 11:30:32;;;;;;;1999.90;999.90;;;15.40;99.90;;;;;;5044924;28;20123;-75
2023/10/19 11:33:01;;;;;;;1999.90;999.90;;;15.40;99.90;;;;;;5052694;28;20060;-76
2023/10/19 11:35:30;;;;;;;1999.90;999.90;;;15.60;99.90;;;;;;5049670;28;20039;-76
2023/10/19 11:37:58;;;;;;;1999.90;999.90;;;15.70;99.90;;;;;;5050196;28;20045;-76
2023/10/19 11:40:25;;;;;;;1999.90;999.90;;;15.80;99.90;;;;;;5043437;28;20048;-76
2023/10/19 11:42:51;;;;;;;1999.90;999.90;;;15.90;99.90;;;;;;5048960;28;20033;-76
2023/10/19 11:45:18;;;;;;;1999.90;999.90;;;16.10;99.90;;;;;;5055823;28;20105;-76
2023/10/19 11:47:44;;;;;;;1999.90;999.90;;;16.40;99.90;;;;;;5051886;28;20037;-75
2023/10/19 11:50:14;;;;;;;1999.90;999.90;;;16.50;99.90;;;;;;5050139;28;20029;-75
2023/10/19 11:52:40;;;;;;;1999.90;999.90;;;17.30;99.90;;;;;;5047566;28;20101;-75
2023/10/19 11:55:06;;;;;;;1999.90;999.90;;;17.60;99.90;;;;;;5043289;28;20430;-75
2023/10/19 11:57:32;;;;;;;1999.90;999.90;;;17.70;99.90;;;;;;5047126;28;20574;-75
2023/10/19 11:59:59;;;;;;;1999.90;999.90;;;17.70;99.90;;;;;;5052268;28;20144;-76
2023/10/19 12:02:26;;;;;;;1999.90;999.90;;;17.70;99.90;;;;;;5046084;28;20038;-75
2023/10/19 12:04:52;;;;;;;1999.90;999.90;;;17.60;99.90;;;;;;5052250;28;20046;-74
2023/10/19 12:07:18;;;;;;;1999.90;999.90;;;17.30;99.90;;;;;;5050369;28;20033;-74
2023/10/19 12:09:44;;;;;;;1999.90;999.90;;;17.00;99.90;;;;;;5056530;28;20450;-73
2023/10/19 12:12:10;;;;;;;1999.90;999.90;;;16.90;99.90;;;;;;5053918;28;20033;-74
2023/10/19 12:14:37;;;;;;;1999.90;999.90;;;17.00;99.90;;;;;;5052695;28;20040;-74
2023/10/19 12:17:03;;;;;;;1999.90;999.90;;;17.20;99.90;;;;;;5052188;28;20116;-74
2023/10/19 12:19:31;;;;;;;1999.90;999.90;;;17.30;99.90;;;;;;5052489;28;20127;-76
2023/10/19 12:22:01;;;;;;;1999.90;999.90;;;17.30;99.90;;;;;;5051481;28;20047;-73
2023/10/19 12:24:29;;;;;;;1999.90;999.90;;;17.60;99.90;;;;;;5053559;28;20032;-75
2023/10/19 12:26:54;;;;;;;1999.90;999.90;;;17.70;99.90;;;;;;5041399;28;20060;-75
2023/10/19 12:29:25;;;;;;;1999.90;999.90;;;17.50;99.90;;;;;;5049235;28;20072;-76
2023/10/19 12:31:51;;;;;;;1999.90;999.90;;;17.80;99.90;;;;;;5053000;28;20478;-76
2023/10/19 12:34:16;;;;;;;1999.90;999.90;;;18.40;99.90;;;;;;5047646;28;20056;-75
2023/10/19 12:36:44;;;;;;;1999.90;999.90;;;17.90;99.90;;;;;;5049532;28;20040;-75
2023/10/19 12:39:18;;;;;;;1999.90;999.90;;;17.90;99.90;;;;;;5054847;28;20456;-75